Terminal Aerodrome Forecast
Issued by NWS Tuscon, AZ

Home | Current Version | Previous Version | Text Only | Print | Product List | Glossary On
Versions: 1 2 3 4 5 6 7 8 9 10 11 12 13 14 15 16 17 18 19 20 21 22
000
FTUS45 KTWC 281700
TAFTUS
TAF
KTUS 281736Z 2818/2918 20008KT P6SM FEW080 SCT150 BKN250
     FM282000 25011KT P6SM VCSH SCT070 BKN150
     FM290200 13010KT P6SM BKN100
     FM291100 14005KT P6SM SCT100 BKN250=

USA.gov is the U.S. government's official web portal to all federal, state and local government web resources and services.